Time;durP1;ratioP1;P1;durP2;ratioP2;P2;SDS_P1;SDS_P2;PMS_P1;PMS_P2;Temp;Humidity;BMP_temperature;BMP_pressure;BME280_temperature;BME280_humidity;BME280_pressure;Samples;Min_cycle;Max_cycle;Signal;HPM_P1;HPM_P2
2022/12/22 03:30:18;;;;;;;4.55;2.92;;;;;;;6.89;100.00;100080.88;10571116;27;20056;-79
2022/12/22 03:35:20;;;;;;;3.13;2.28;;;;;;;6.88;100.00;100076.53;10560728;27;20345;-78
2022/12/22 03:40:22;;;;;;;4.03;2.05;;;;;;;6.84;100.00;100064.28;10600648;27;20050;-79
2022/12/22 03:50:43;;;;;;;4.95;2.40;;;;;;;6.87;100.00;100048.72;10559529;27;20040;-79
2022/12/22 03:55:45;;;;;;;3.47;2.38;;;;;;;6.88;100.00;100053.09;10559642;27;20046;-80
2022/12/22 04:00:46;;;;;;;5.28;3.13;;;;;;;6.88;100.00;100045.28;10583586;27;20039;-80
2022/12/22 04:05:48;;;;;;;3.17;2.35;;;;;;;6.83;100.00;100039.13;10562846;27;20040;-80
2022/12/22 04:16:09;;;;;;;4.35;2.97;;;;;;;6.80;100.00;100030.34;10584099;27;20051;-79
2022/12/22 04:21:11;;;;;;;3.95;2.20;;;;;;;6.77;100.00;100026.00;10584495;27;20114;-80
2022/12/22 04:26:13;;;;;;;4.68;2.83;;;;;;;6.80;100.00;100022.56;10568679;27;20051;-80
2022/12/22 04:31:14;;;;;;;5.50;3.05;;;;;;;6.81;100.00;100022.59;10559285;27;20047;-81
2022/12/22 04:36:16;;;;;;;3.42;2.60;;;;;;;6.85;100.00;100019.22;10585292;27;20046;-79
2022/12/22 04:41:18;;;;;;;4.75;3.00;;;;;;;6.85;100.00;100010.53;10592629;27;20055;-79
2022/12/22 04:46:19;;;;;;;4.53;2.13;;;;;;;6.89;100.00;100015.81;10586080;27;20046;-80
2022/12/22 04:51:21;;;;;;;3.72;2.08;;;;;;;6.90;100.00;100014.09;10576209;27;20075;-80
2022/12/22 04:56:23;;;;;;;3.05;2.05;;;;;;;6.90;100.00;100022.78;10572429;27;20042;-80
2022/12/22 05:01:24;;;;;;;4.72;2.70;;;;;;;6.90;100.00;100019.28;10593920;27;20058;-80
2022/12/22 05:06:26;;;;;;;3.88;2.15;;;;;;;6.87;100.00;100016.63;10587146;27;20039;-82
2022/12/22 05:11:27;;;;;;;3.25;2.15;;;;;;;6.83;100.00;100004.41;10610525;27;20039;-79
2022/12/22 05:16:29;;;;;;;2.38;1.77;;;;;;;6.82;100.00;100005.28;10600624;28;20047;-79
2022/12/22 05:21:31;;;;;;;8.38;2.75;;;;;;;6.83;100.00;99989.69;10582709;28;20083;-79
2022/12/22 05:26:32;;;;;;;3.97;1.77;;;;;;;6.85;100.00;99989.72;10575686;28;20060;-79
2022/12/22 05:31:34;;;;;;;4.68;3.40;;;;;;;6.83;100.00;99987.09;10586848;28;20043;-79
2022/12/22 05:36:35;;;;;;;3.13;2.08;;;;;;;6.83;100.00;99986.19;10574576;28;20040;-79
2022/12/22 05:41:37;;;;;;;3.55;2.30;;;;;;;6.81;100.00;99980.94;10575330;28;20042;-79
2022/12/22 05:46:38;;;;;;;2.63;1.85;;;;;;;6.82;100.00;99982.72;10580467;28;20036;-79
2022/12/22 05:51:40;;;;;;;5.53;2.10;;;;;;;6.83;100.00;99979.28;10572129;28;20966;-80
2022/12/22 05:56:52;;;;;;;4.85;1.98;;;;;;;6.86;100.00;99974.13;10578052;28;20631;-81
2022/12/22 06:01:53;;;;;;;7.35;3.83;;;;;;;6.87;100.00;99986.28;10569332;28;20065;-82
2022/12/22 06:06:55;;;;;;;4.35;2.30;;;;;;;6.86;100.00;99984.53;10583763;27;20038;-79
2022/12/22 06:11:56;;;;;;;3.25;2.50;;;;;;;6.84;100.00;99980.16;10575242;28;20032;-79
2022/12/22 06:16:58;;;;;;;2.78;2.20;;;;;;;6.82;100.00;99977.50;10565691;28;20043;-79
2022/12/22 06:21:59;;;;;;;5.10;2.97;;;;;;;6.83;100.00;99987.09;10558841;28;20043;-79
2022/12/22 06:27:01;;;;;;;4.60;3.28;;;;;;;6.87;100.00;99980.19;10582425;27;20532;-81
2022/12/22 06:32:03;;;;;;;4.25;2.97;;;;;;;6.88;100.00;99987.16;10580196;27;20043;-79
2022/12/22 06:37:05;;;;;;;1.45;1.35;;;;;;;6.87;100.00;99988.88;10556476;28;20263;-81
2022/12/22 06:47:29;;;;;;;4.63;2.45;;;;;;;6.84;100.00;99974.94;10564924;27;20047;-79
2022/12/22 06:52:30;;;;;;;2.72;2.10;;;;;;;6.84;100.00;99973.19;10573737;28;20051;-80
2022/12/22 06:57:32;;;;;;;3.72;2.30;;;;;;;6.82;100.00;99982.72;10571882;27;20108;-79
2022/12/22 07:02:33;;;;;;;4.10;2.38;;;;;;;6.84;100.00;99986.22;10570183;28;20063;-79
2022/12/22 07:07:35;;;;;;;2.50;1.95;;;;;;;6.84;100.00;99982.75;10573974;28;20052;-80
2022/12/22 07:12:37;;;;;;;7.57;4.40;;;;;;;6.86;100.00;100000.16;10574027;28;20046;-79
2022/12/22 07:17:40;;;;;;;4.43;2.75;;;;;;;6.87;100.00;100022.72;10543038;28;20071;-79
2022/12/22 07:22:42;;;;;;;2.75;1.67;;;;;;;6.91;100.00;100028.88;10552521;27;20047;-78
2022/12/22 07:27:43;;;;;;;6.15;4.07;;;;;;;6.92;100.00;100034.94;10580053;27;20128;-78
2022/12/22 07:32:45;;;;;;;4.13;2.67;;;;;;;6.92;100.00;100035.84;10586360;27;20032;-78
2022/12/22 07:37:47;;;;;;;3.78;2.67;;;;;;;6.93;100.00;100032.38;10576226;27;20047;-79
2022/12/22 07:42:49;;;;;;;1.75;1.15;;;;;;;6.95;100.00;100035.00;10581390;27;20054;-77
2022/12/22 07:47:51;;;;;;;7.22;4.25;;;;;;;6.98;100.00;100045.47;10580653;27;20050;-78
2022/12/22 07:52:57;;;;;;;3.47;1.95;;;;;;;6.97;100.00;100043.75;10579033;27;20035;-78
2022/12/22 07:57:59;;;;;;;3.13;1.75;;;;;;;6.97;100.00;100048.94;10560273;27;20040;-79
2022/12/22 08:03:01;;;;;;;4.07;2.95;;;;;;;7.00;100.00;100049.88;10570649;27;20042;-79
2022/12/22 08:08:03;;;;;;;3.53;2.35;;;;;;;6.97;100.00;100044.59;10564000;27;20047;-79
2022/12/22 08:13:04;;;;;;;3.75;2.38;;;;;;;6.95;100.00;100046.31;10582864;27;20044;-79
2022/12/22 08:18:06;;;;;;;5.95;3.33;;;;;;;6.96;100.00;100039.38;10565284;27;20051;-78
2022/12/22 08:23:08;;;;;;;3.67;2.42;;;;;;;6.96;100.00;100047.19;10587115;27;20043;-79
2022/12/22 08:28:11;;;;;;;6.13;2.17;;;;;;;6.89;100.00;100035.75;10575336;27;20422;-78
2022/12/22 08:33:12;;;;;;;5.78;3.05;;;;;;;6.90;100.00;100022.78;10582217;27;20044;-82
2022/12/22 08:38:14;;;;;;;4.13;2.53;;;;;;;6.92;100.00;100029.72;10586679;27;20099;-80
2022/12/22 08:43:17;;;;;;;3.65;2.00;;;;;;;6.90;100.00;100037.50;10547739;27;20039;-81
2022/12/22 08:48:19;;;;;;;4.07;2.90;;;;;;;6.95;100.00;100040.19;10586772;27;20507;-81
2022/12/22 08:53:20;;;;;;;3.45;2.15;;;;;;;6.97;100.00;100048.94;10589984;27;20061;-80
2022/12/22 08:58:42;;;;;;;2.38;1.77;;;;;;;6.98;100.00;100055.88;10568746;27;20138;-80
2022/12/22 09:03:50;;;;;;;6.22;3.40;;;;;;;7.00;100.00;100049.00;10583374;27;20068;-79
2022/12/22 09:08:56;;;;;;;5.35;2.55;;;;;;;7.03;100.00;100069.88;10579112;27;20124;-79
2022/12/22 09:14:00;;;;;;;5.50;3.55;;;;;;;7.04;100.00;100074.22;10579272;28;20040;-81
2022/12/22 09:19:02;;;;;;;4.50;2.65;;;;;;;7.06;100.00;100075.16;10580631;28;20050;-80
2022/12/22 09:24:06;;;;;;;1.90;1.27;;;;;;;7.08;100.00;100082.13;10593638;27;20518;-80
2022/12/22 09:29:07;;;;;;;1.85;1.30;;;;;;;7.11;100.00;100088.25;10575882;27;20061;-81
2022/12/22 09:34:09;;;;;;;3.10;2.35;;;;;;;7.08;100.00;100095.13;10595828;27;20054;-78
2022/12/22 09:39:18;;;;;;;2.97;1.93;;;;;;;7.18;100.00;100109.22;10596749;27;20124;-78
2022/12/22 09:44:37;;;;;;;3.05;2.13;;;;;;;7.18;100.00;100122.25;10597721;27;20074;-79
2022/12/22 09:49:38;;;;;;;3.88;2.72;;;;;;;7.20;100.00;100111.88;10593324;27;20560;-80
2022/12/22 09:54:40;;;;;;;4.40;2.83;;;;;;;7.13;100.00;100123.00;10583172;27;20100;-79
2022/12/22 09:59:41;;;;;;;5.07;2.38;;;;;;;7.13;100.00;100110.88;10608079;27;20442;-80
2022/12/22 10:04:59;;;;;;;7.65;2.35;;;;;;;7.15;100.00;100098.75;10607235;27;20043;-81
2022/12/22 10:10:29;;;;;;;3.75;2.33;;;;;;;7.30;100.00;100110.34;10580403;27;20043;-80
2022/12/22 10:15:37;;;;;;;5.75;2.83;;;;;;;7.38;100.00;100111.34;10582782;27;20031;-81
2022/12/22 10:20:39;;;;;;;3.58;2.70;;;;;;;7.48;100.00;100113.28;10587347;27;20058;-80
2022/12/22 10:26:04;;;;;;;2.90;1.70;;;;;;;7.53;100.00;100124.66;10556036;28;20064;-78
2022/12/22 10:31:31;;;;;;;2.90;2.28;;;;;;;7.38;100.00;100126.97;10572498;28;20100;-79
2022/12/22 10:36:34;;;;;;;3.22;2.08;;;;;;;7.26;100.00;100131.09;10562477;28;20474;-81
2022/12/22 10:41:40;;;;;;;2.05;1.42;;;;;;;7.07;100.00;100136.75;10572859;27;20478;-76
2022/12/22 10:46:47;;;;;;;3.78;1.63;;;;;;;6.95;100.00;100137.41;10582661;27;20086;-80
2022/12/22 10:52:11;;;;;;;1.98;1.23;;;;;;;6.90;100.00;100137.31;10578606;28;20063;-81
2022/12/22 10:57:13;;;;;;;0.90;0.82;;;;;;;6.85;100.00;100140.66;10569493;28;20089;-79
2022/12/22 11:02:27;;;;;;;1.92;1.50;;;;;;;6.92;100.00;100139.94;10551817;28;20067;-79
2022/12/22 11:07:32;;;;;;;2.30;1.27;;;;;;;6.99;100.00;100148.75;10568155;28;20051;-79
2022/12/22 11:12:56;;;;;;;2.67;1.90;;;;;;;6.81;100.00;100144.91;10569765;28;20051;-80
2022/12/22 11:18:07;;;;;;;2.55;1.92;;;;;;;6.87;100.00;100157.16;10568002;27;20697;-78
2022/12/22 11:23:18;;;;;;;3.15;2.60;;;;;;;7.05;100.00;100162.75;10548507;28;20065;-78
2022/12/22 11:28:38;;;;;;;2.17;1.42;;;;;;;7.26;100.00;100157.13;10555974;27;20046;-78
2022/12/22 11:33:42;;;;;;;2.30;1.87;;;;;;;7.36;100.00;100167.75;10559857;27;20526;-77
2022/12/22 11:39:13;;;;;;;9.73;8.90;;;;;;;7.46;100.00;100169.69;10567256;28;20052;-79
2022/12/22 11:44:36;;;;;;;6.40;5.80;;;;;;;7.64;100.00;100178.69;10551495;27;20665;-78
2022/12/22 11:49:54;;;;;;;205.63;186.15;;;;;;;7.61;100.00;100177.81;10554600;28;20047;-79
2022/12/22 11:55:34;;;;;;;20.08;18.73;;;;;;;7.58;99.89;100179.47;10581799;27;20043;-78
2022/12/22 12:00:47;;;;;;;4.78;2.58;;;;;;;7.60;99.14;100196.00;10542597;27;20048;-79
2022/12/22 12:06:09;;;;;;;9.68;8.98;;;;;;;7.66;98.36;100190.06;10565813;27;20054;-77
2022/12/22 12:11:28;;;;;;;4.03;3.72;;;;;;;7.61;97.80;100187.31;10535598;27;20727;-79
2022/12/22 12:16:41;;;;;;;1.33;0.87;;;;;;;7.70;97.35;100202.28;10569136;27;20807;-78
2022/12/22 12:21:48;;;;;;;3.25;1.30;;;;;;;7.67;96.76;100204.81;10563315;27;20049;-77
2022/12/22 12:27:14;;;;;;;3.67;1.00;;;;;;;7.70;96.17;100210.09;10563261;28;20051;-77
2022/12/22 12:32:28;;;;;;;0.57;0.57;;;;;;;7.51;95.82;100201.06;10563602;27;20040;-77
2022/12/22 12:37:36;;;;;;;0.40;0.40;;;;;;;7.44;95.03;100207.84;10573320;27;20073;-79
2022/12/22 12:42:42;;;;;;;1.40;0.80;;;;;;;7.36;94.51;100210.28;10591122;27;20054;-79
2022/12/22 12:47:44;;;;;;;1.00;0.73;;;;;;;7.18;94.08;100215.13;10562411;27;20079;-77
2022/12/22 12:52:47;;;;;;;0.40;0.40;;;;;;;7.08;93.62;100198.41;10597414;27;20043;-77
2022/12/22 12:57:50;;;;;;;0.93;0.75;;;;;;;6.99;93.73;100208.63;10566544;27;20050;-75
2022/12/22 13:02:56;;;;;;;0.93;0.77;;;;;;;7.00;93.36;100226.00;10574574;27;20448;-77
2022/12/22 13:08:16;;;;;;;1.30;1.20;;;;;;;6.95;93.15;100218.09;10559900;27;20055;-78
2022/12/22 13:13:20;;;;;;;1.20;0.93;;;;;;;6.94;93.01;100225.88;10569532;27;20047;-77
2022/12/22 13:18:22;;;;;;;0.52;0.50;;;;;;;6.97;93.02;100225.94;10572819;27;20118;-76
2022/12/22 13:23:34;;;;;;;0.52;0.52;;;;;;;6.95;92.96;100235.41;10569875;28;20448;-79
2022/12/22 13:29:17;;;;;;;5.57;2.42;;;;;;;6.84;92.84;100238.66;10580797;28;20058;-76
2022/12/22 13:34:19;;;;;;;0.68;0.65;;;;;;;6.76;92.53;100232.41;10562140;28;20038;-77
2022/12/22 13:39:20;;;;;;;3.85;0.55;;;;;;;6.69;92.63;100238.28;10559775;28;20055;-77
2022/12/22 13:44:30;;;;;;;1.92;0.82;;;;;;;6.67;92.66;100248.66;10573042;27;20418;-77
2022/12/22 13:49:33;;;;;;;1.20;1.10;;;;;;;6.65;92.61;100244.25;10547725;28;20048;-78
2022/12/22 13:54:55;;;;;;;0.22;0.22;;;;;;;6.55;92.74;100251.84;10574432;28;20325;-82
2022/12/22 13:59:56;;;;;;;8.05;0.98;;;;;;;6.52;92.74;100243.09;10577065;28;20047;-79
2022/12/22 14:05:04;;;;;;;0.55;0.52;;;;;;;6.44;92.74;100240.31;10555518;28;20051;-77
2022/12/22 14:10:07;;;;;;;0.43;0.43;;;;;;;6.40;92.74;100248.88;10576944;27;20589;-78
2022/12/22 14:15:16;;;;;;;1.63;0.93;;;;;;;6.28;92.93;100257.22;10590462;27;20052;-77
2022/12/22 14:20:23;;;;;;;0.88;0.73;;;;;;;6.27;93.13;100244.19;10586168;27;20039;-77
2022/12/22 14:25:38;;;;;;;0.52;0.40;;;;;;;6.16;93.32;100255.19;10580923;27;20408;-76
2022/12/22 14:30:47;;;;;;;0.93;0.85;;;;;;;6.09;93.58;100255.84;10566305;27;20061;-75
2022/12/22 14:35:49;;;;;;;0.50;0.50;;;;;;;6.11;93.80;100253.28;10581832;27;20036;-78
2022/12/22 14:40:52;;;;;;;1.08;0.63;;;;;;;6.05;94.06;100256.63;10552776;27;20050;-78
2022/12/22 14:46:07;;;;;;;0.70;0.70;;;;;;;5.99;94.19;100262.53;10575955;27;20044;-78
2022/12/22 14:51:09;;;;;;;0.55;0.55;;;;;;;5.98;94.33;100270.28;10585828;27;20071;-78
2022/12/22 14:56:12;;;;;;;1.40;0.88;;;;;;;5.96;94.67;100271.91;10594710;27;20035;-78
2022/12/22 15:01:29;;;;;;;0.52;0.50;;;;;;;5.95;94.62;100280.56;10567683;27;20044;-79
2022/12/22 15:06:35;;;;;;;2.00;0.85;;;;;;;5.93;94.92;100275.34;10578704;27;20047;-79
2022/12/22 15:11:41;;;;;;;0.45;0.45;;;;;;;5.93;95.11;100271.84;10549187;27;20065;-80
2022/12/22 15:16:43;;;;;;;2.10;0.65;;;;;;;5.99;95.23;100279.81;10568798;28;20564;-80
2022/12/22 15:21:45;;;;;;;2.05;0.73;;;;;;;5.97;95.14;100269.38;10576146;27;20054;-78
2022/12/22 15:26:46;;;;;;;0.70;0.28;;;;;;;5.98;95.39;100275.50;10549885;28;20048;-80
2022/12/22 15:31:48;;;;;;;0.28;0.28;;;;;;;6.01;95.64;100270.38;10569529;28;20043;-78
2022/12/22 15:36:50;;;;;;;0.85;0.52;;;;;;;5.98;95.79;100272.91;10562115;28;20046;-79
2022/12/22 15:41:53;;;;;;;2.03;1.00;;;;;;;5.94;95.70;100277.06;10567165;28;20043;-79
2022/12/22 15:46:56;;;;;;;0.57;0.57;;;;;;;5.91;95.77;100278.72;10564439;28;20119;-78
2022/12/22 15:52:01;;;;;;;0.52;0.50;;;;;;;5.87;95.97;100288.16;10548476;28;20548;-78
2022/12/22 15:57:03;;;;;;;0.98;0.77;;;;;;;5.83;96.11;100286.31;10557766;27;20136;-77
2022/12/22 16:02:10;;;;;;;0.32;0.32;;;;;;;5.74;96.07;100288.66;10577859;27;20043;-78
2022/12/22 16:07:12;;;;;;;1.38;0.80;;;;;;;5.74;95.83;100286.06;10574443;27;20108;-77
2022/12/22 16:12:17;;;;;;;0.45;0.43;;;;;;;5.71;96.25;100276.44;10558785;27;20070;-78
2022/12/22 16:17:25;;;;;;;1.80;1.25;;;;;;;5.72;96.28;100282.50;10589054;27;20047;-77
2022/12/22 16:22:33;;;;;;;3.72;2.17;;;;;;;5.74;96.31;100289.50;10570929;27;20047;-79
2022/12/22 16:27:34;;;;;;;2.33;1.00;;;;;;;5.78;96.38;100291.38;10569944;27;20047;-77
2022/12/22 16:32:36;;;;;;;1.02;0.68;;;;;;;5.79;96.68;100285.31;10563497;27;20054;-78
2022/12/22 16:37:38;;;;;;;2.28;1.30;;;;;;;5.79;96.44;100282.72;10572934;27;20507;-79
2022/12/22 16:42:43;;;;;;;1.13;0.95;;;;;;;5.75;96.32;100275.69;10561195;27;20051;-77
2022/12/22 16:48:13;;;;;;;0.63;0.38;;;;;;;5.77;96.25;100275.75;10573425;27;20050;-78
2022/12/22 16:53:15;;;;;;;1.05;0.80;;;;;;;5.67;96.26;100264.19;10575600;27;20058;-78
2022/12/22 16:58:17;;;;;;;0.57;0.57;;;;;;;5.67;96.02;100282.38;10594324;27;20525;-78
2022/12/22 17:03:23;;;;;;;1.90;1.10;;;;;;;5.67;96.05;100269.38;10564095;27;20047;-77
2022/12/22 17:08:28;;;;;;;2.45;1.58;;;;;;;5.66;95.91;100262.44;10602068;27;20069;-77
2022/12/22 17:13:30;;;;;;;2.53;1.02;;;;;;;5.65;95.92;100268.47;10592101;27;20051;-77
2022/12/22 17:18:34;;;;;;;0.80;0.80;;;;;;;5.66;95.91;100263.31;10554154;27;20055;-78
2022/12/22 17:23:39;;;;;;;1.27;0.85;;;;;;;5.64;95.72;100258.91;10559557;28;20056;-78
2022/12/22 17:28:42;;;;;;;2.05;1.30;;;;;;;5.61;95.79;100248.44;10557331;28;20047;-78
2022/12/22 17:33:43;;;;;;;1.27;0.90;;;;;;;5.60;95.58;100246.66;10544942;28;20130;-77
2022/12/22 17:38:45;;;;;;;1.58;1.02;;;;;;;5.55;95.50;100238.75;10547641;28;20415;-77
2022/12/22 17:43:46;;;;;;;0.20;0.20;;;;;;;5.51;95.46;100236.03;10592179;27;20252;-77
2022/12/22 17:48:49;;;;;;;4.32;1.90;;;;;;;5.54;95.43;100236.09;10533544;28;20044;-77
2022/12/22 17:53:52;;;;;;;1.77;1.33;;;;;;;5.54;95.61;100241.31;10597238;27;20047;-77
2022/12/22 17:58:54;;;;;;;1.33;1.20;;;;;;;5.57;95.50;100243.97;10554753;28;20051;-77
2022/12/22 18:03:55;;;;;;;1.38;1.20;;;;;;;5.57;95.47;100236.19;10574213;27;20059;-77
2022/12/22 18:08:57;;;;;;;1.33;1.08;;;;;;;5.63;95.71;100236.34;10585393;27;20836;-77
2022/12/22 18:13:59;;;;;;;1.45;1.10;;;;;;;5.67;95.62;100227.81;10591652;27;20488;-77
2022/12/22 18:19:01;;;;;;;2.45;1.75;;;;;;;5.70;95.63;100224.44;10579090;27;20062;-77
2022/12/22 18:24:03;;;;;;;0.93;0.50;;;;;;;5.73;95.54;100211.53;10600925;27;20047;-76
2022/12/22 18:29:05;;;;;;;1.60;1.15;;;;;;;5.64;95.24;100206.97;10590188;27;20065;-78
2022/12/22 18:34:06;;;;;;;0.98;0.88;;;;;;;5.61;95.45;100209.47;10597826;27;20047;-78
2022/12/22 18:39:15;;;;;;;0.65;0.55;;;;;;;5.57;95.49;100207.63;10570710;27;20055;-77
2022/12/22 18:44:18;;;;;;;0.88;0.80;;;;;;;5.59;95.68;100208.56;10588101;27;20139;-77
2022/12/22 18:49:20;;;;;;;2.67;1.55;;;;;;;5.57;95.49;100205.94;10576347;27;20047;-77
2022/12/22 18:54:30;;;;;;;0.77;0.70;;;;;;;5.60;95.74;100192.13;10569965;27;20047;-78
2022/12/22 18:59:31;;;;;;;2.75;1.70;;;;;;;5.60;95.71;100189.53;10582787;27;20047;-77
2022/12/22 19:04:33;;;;;;;1.27;0.82;;;;;;;5.55;95.62;100184.19;10581701;27;20051;-77
2022/12/22 19:09:34;;;;;;;0.60;0.60;;;;;;;5.55;96.03;100185.94;10571221;27;20066;-77
2022/12/22 19:14:36;;;;;;;2.45;1.95;;;;;;;5.54;95.87;100181.56;10539249;27;20039;-77
2022/12/22 19:19:38;;;;;;;1.75;1.42;;;;;;;5.56;96.10;100172.13;10561643;27;20427;-77
2022/12/22 19:24:46;;;;;;;1.50;1.13;;;;;;;5.59;96.24;100173.06;10579201;27;20055;-77
2022/12/22 19:29:48;;;;;;;1.05;0.82;;;;;;;5.68;96.21;100166.38;10583140;27;20044;-77
2022/12/22 19:34:49;;;;;;;2.53;1.80;;;;;;;5.71;96.25;100159.53;10573968;27;20039;-77
2022/12/22 19:39:51;;;;;;;2.70;1.98;;;;;;;5.70;96.40;100154.31;10587701;27;20055;-78
2022/12/22 19:44:52;;;;;;;3.92;2.20;;;;;;;5.72;96.24;100157.81;10591682;27;20499;-77
2022/12/22 19:49:55;;;;;;;2.85;2.05;;;;;;;5.70;96.31;100147.38;10568199;27;20118;-78
2022/12/22 19:54:56;;;;;;;2.70;1.73;;;;;;;5.72;96.16;100145.72;10567324;27;20499;-78
2022/12/22 19:59:58;;;;;;;4.35;2.40;;;;;;;5.81;96.46;100148.56;10567715;27;20043;-77
2022/12/22 20:05:00;;;;;;;5.85;3.70;;;;;;;5.78;96.52;100138.09;10544261;28;20522;-78
2022/12/22 20:10:03;;;;;;;8.32;3.17;;;;;;;5.81;96.48;100137.25;10554595;27;20051;-78
2022/12/22 20:15:30;;;;;;;4.82;2.53;;;;;;;5.78;96.56;100138.09;10563259;28;20517;-78
2022/12/22 20:20:35;;;;;;;3.70;2.45;;;;;;;5.71;96.48;100125.78;10555380;27;20044;-77
2022/12/22 20:25:43;;;;;;;3.22;2.08;;;;;;;5.67;96.63;100123.91;10560253;28;20040;-77
2022/12/22 20:30:46;;;;;;;4.53;2.95;;;;;;;5.62;96.54;100128.13;10564945;28;20055;-78
2022/12/22 20:35:49;;;;;;;5.90;2.45;;;;;;;5.58;96.68;100124.56;10558981;28;20056;-77
2022/12/22 20:40:52;;;;;;;3.80;2.08;;;;;;;5.55;96.72;100134.00;10553098;27;20043;-78
2022/12/22 20:45:58;;;;;;;5.03;2.75;;;;;;;5.55;96.96;100124.47;10569577;27;20046;-78
2022/12/22 20:51:03;;;;;;;5.47;2.70;;;;;;;5.57;97.13;100108.94;10569761;28;20086;-79
2022/12/22 20:56:23;;;;;;;6.20;3.17;;;;;;;5.56;97.21;100110.66;10567450;27;20521;-79
2022/12/22 21:01:24;;;;;;;4.93;2.47;;;;;;;5.52;97.37;100087.16;10567759;28;20054;-79
2022/12/22 21:06:29;;;;;;;2.92;2.33;;;;;;;5.47;97.34;100094.84;10566290;28;20142;-79
2022/12/22 21:11:31;;;;;;;4.90;2.50;;;;;;;5.47;97.36;100090.50;10573680;28;20043;-79
2022/12/22 21:16:33;;;;;;;4.15;2.60;;;;;;;5.44;97.63;100085.25;10576292;27;20051;-79
2022/12/22 21:21:34;;;;;;;4.72;2.70;;;;;;;5.41;97.63;100086.88;10569522;27;20112;-79
2022/12/22 21:26:41;;;;;;;7.18;3.83;;;;;;;5.35;97.75;100079.81;10572306;28;20067;-80
2022/12/22 21:31:43;;;;;;;4.53;2.55;;;;;;;5.36;97.83;100084.16;10571645;28;20047;-78
2022/12/22 21:36:47;;;;;;;3.28;1.77;;;;;;;5.35;97.92;100077.22;10579336;28;20099;-78
2022/12/22 21:42:01;;;;;;;8.13;2.60;;;;;;;5.30;98.11;100068.44;10571715;28;20036;-78
2022/12/22 21:47:03;;;;;;;3.58;2.03;;;;;;;5.29;98.00;100058.88;10587742;28;20391;-79
2022/12/22 21:52:05;;;;;;;2.42;1.42;;;;;;;5.30;97.85;100065.84;10596638;28;20055;-78
2022/12/22 21:57:13;;;;;;;3.20;1.90;;;;;;;5.28;98.26;100070.09;10576787;28;20055;-79
2022/12/22 22:02:16;;;;;;;2.63;1.73;;;;;;;5.26;98.35;100064.00;10587458;28;20036;-78
2022/12/22 22:07:18;;;;;;;5.00;2.80;;;;;;;5.28;98.16;100062.31;10576248;28;20040;-78
2022/12/22 22:12:31;;;;;;;3.42;1.80;;;;;;;5.28;98.33;100062.31;10581881;28;20044;-79
2022/12/22 22:17:33;;;;;;;5.30;2.58;;;;;;;5.26;98.54;100061.38;10584113;28;20521;-78
2022/12/22 22:22:35;;;;;;;4.25;2.78;;;;;;;5.23;98.65;100049.19;10573003;28;20047;-79
2022/12/22 22:27:36;;;;;;;5.30;2.42;;;;;;;5.24;98.68;100044.88;10569726;28;20518;-80
2022/12/22 22:32:44;;;;;;;4.45;2.75;;;;;;;5.22;98.71;100037.06;10573671;28;20100;-79
2022/12/22 22:37:49;;;;;;;2.30;1.90;;;;;;;5.24;98.69;100050.97;10573945;27;20043;-79
2022/12/22 22:42:51;;;;;;;4.60;3.30;;;;;;;5.24;98.84;100044.88;10563423;28;20495;-80
2022/12/22 22:47:52;;;;;;;5.20;2.72;;;;;;;5.26;98.83;100038.03;10581391;27;20039;-79
2022/12/22 22:52:54;;;;;;;5.85;3.10;;;;;;;5.33;99.02;100050.34;10575101;28;20040;-79
2022/12/22 22:57:56;;;;;;;5.50;2.88;;;;;;;5.31;98.86;100050.31;10572126;27;20063;-79
2022/12/22 23:02:58;;;;;;;3.53;2.03;;;;;;;5.30;98.92;100039.88;10580101;27;20044;-79
2022/12/22 23:08:01;;;;;;;4.13;2.47;;;;;;;5.27;99.38;100035.47;10580203;27;20062;-80
2022/12/22 23:13:02;;;;;;;3.78;2.15;;;;;;;5.30;98.94;100024.31;10552264;28;20050;-81
2022/12/22 23:18:04;;;;;;;2.92;2.03;;;;;;;5.30;99.11;100021.72;10552045;28;20058;-80
2022/12/22 23:23:05;;;;;;;7.32;3.45;;;;;;;5.31;99.22;100023.44;10567051;28;20050;-80
2022/12/22 23:28:07;;;;;;;7.05;3.50;;;;;;;5.32;99.28;100022.63;10547349;28;20054;-80
2022/12/22 23:33:09;;;;;;;4.13;2.63;;;;;;;5.33;99.26;100014.00;10552271;28;20040;-80
2022/12/22 23:38:10;;;;;;;4.00;2.28;;;;;;;5.36;99.32;100015.78;10562603;28;20047;-79
2022/12/22 23:43:12;;;;;;;4.38;2.85;;;;;;;5.36;99.33;100010.56;10569873;28;20052;-79
2022/12/22 23:48:14;;;;;;;3.10;1.92;;;;;;;5.36;99.32;100013.19;10540534;28;20061;-81
2022/12/22 23:53:16;;;;;;;5.00;3.15;;;;;;;5.37;99.36;100015.81;10552692;28;20529;-79
2022/12/22 23:58:18;;;;;;;2.88;1.83;;;;;;;5.39;99.51;100019.34;10571514;27;20055;-79
